Ladd AAF Airfield
PAFB : rendu visible

Aérodrome :











RETROUVEZ-NOUS SUR...

 
LOGIN :

S'inscrire | Disclaimer

   EN    FR    IT 

 









Légende :    VFR   VFR Marginal   IFR   IFR Intensif   IFR Très Intensif
Visi : 
Plafond : 
>= 8 km
>= 3000ft
5 à 8 km
1000 à 3000 ft
1500m à 5 km
500 à 1000 ft
800 à 1500m
200 à 500 ft
< 800m
< 200 ft
Symboles :   Orages  Brouillard  Fortes neiges  Fortes précipitations  Vent > 20 kt






- Altitude de l'aérodrome : 454 ft
- Code IATA : FBK


PAFB - Ladd AAF

DERNIER METAR :
  • 041358Z AUTO 00000KT 10SM SCT040 BKN050 BKN060 M04/M05 A2996 RMK AO2 SLP153 T10431046

METARs EXPIRÉS :
  • 041258Z AUTO 00000KT 10SM SCT039 BKN050 M05/M05 A2996 RMK AO2 SLP154 T10511054
  • 041158Z AUTO 00000KT 10SM CLR M05/M05 A2998 RMK AO2 SLP160 T10491052 11015 21064 57021

TAF TAF PAFB
Valide du 04 à 07h jusqu'au 05 à 13h UTC


040700Z 0407/0513 VRB06KT 9999 BKN025 QNH3007INS
BECMG 0415/0416 VRB06KT 9000 -SN BKN015 620158 QNH2991INS
BECMG 0420/0421 VRB06KT 9000 -RA OVC015 QNH2982INS
BECMG 0510/0511 VRB06KT 9999 NSW FEW030 QNH2954INS TX00/0507Z TNM06/0408Z



MET'MAP, la Météo Aéronautique d'un coup d'oeil ! - Copyright ORBIFLY Décembre 2007 - Disclaimer

ORBIFLY MET'MAP TEAM :

Programmation & Développement : Alexandra Zaïnal
Sur une idée originale de : Baudouin d'Aumeries
Assistance à la programmation : Marc-Olivier Méhu
Soutien technique & logistique : Manuel Goepfert

Contact : metmap@orbifly.com




SOURCES & CREDITS :

   NOAA       Earth
Advisory